sensor_id;sensor_type;location;lat;lon;timestamp;pressure;altitude;pressure_sealevel;temperature;humidity
29549;BME280;16487;53.094;8.800;2022-12-07T00:00:54;102065.88;;;4.16;100.00
29549;BME280;16487;53.094;8.800;2022-12-07T00:03:22;102059.88;;;4.11;100.00
29549;BME280;16487;53.094;8.800;2022-12-07T00:05:49;102069.25;;;4.06;100.00
29549;BME280;16487;53.094;8.800;2022-12-07T00:08:18;102060.56;;;4.04;100.00
29549;BME280;16487;53.094;8.800;2022-12-07T00:10:45;102060.47;;;4.01;100.00
29549;BME280;16487;53.094;8.800;2022-12-07T00:13:13;102055.78;;;4.01;100.00
29549;BME280;16487;53.094;8.800;2022-12-07T00:15:40;102070.00;;;4.03;100.00
29549;BME280;16487;53.094;8.800;2022-12-07T00:18:08;102058.09;;;3.99;100.00
29549;BME280;16487;53.094;8.800;2022-12-07T00:20:35;102065.94;;;3.97;100.00
29549;BME280;16487;53.094;8.800;2022-12-07T00:23:02;102053.72;;;3.98;100.00
29549;BME280;16487;53.094;8.800;2022-12-07T00:25:31;102063.19;;;3.97;100.00
29549;BME280;16487;53.094;8.800;2022-12-07T00:27:58;102062.38;;;3.97;100.00
29549;BME280;16487;53.094;8.800;2022-12-07T00:30:26;102067.41;;;3.91;100.00
29549;BME280;16487;53.094;8.800;2022-12-07T00:32:53;102065.00;;;3.90;100.00
29549;BME280;16487;53.094;8.800;2022-12-07T00:35:20;102059.91;;;3.92;100.00
29549;BME280;16487;53.094;8.800;2022-12-07T00:37:48;102063.63;;;3.99;100.00
29549;BME280;16487;53.094;8.800;2022-12-07T00:40:15;102060.47;;;4.01;100.00
29549;BME280;16487;53.094;8.800;2022-12-07T00:42:44;102066.06;;;4.04;100.00
29549;BME280;16487;53.094;8.800;2022-12-07T00:45:11;102062.13;;;4.05;100.00
29549;BME280;16487;53.094;8.800;2022-12-07T00:47:38;102060.63;;;4.08;100.00
29549;BME280;16487;53.094;8.800;2022-12-07T00:50:06;102055.03;;;4.04;100.00
29549;BME280;16487;53.094;8.800;2022-12-07T00:52:34;102056.56;;;4.02;100.00
29549;BME280;16487;53.094;8.800;2022-12-07T00:55:01;102043.44;;;3.95;100.00
29549;BME280;16487;53.094;8.800;2022-12-07T00:57:30;102030.75;;;3.91;100.00
29549;BME280;16487;53.094;8.800;2022-12-07T00:59:58;102034.31;;;3.91;100.00
29549;BME280;16487;53.094;8.800;2022-12-07T01:02:26;102029.59;;;3.92;100.00
29549;BME280;16487;53.094;8.800;2022-12-07T01:04:53;102019.22;;;3.85;100.00
29549;BME280;16487;53.094;8.800;2022-12-07T01:07:21;102018.06;;;3.86;100.00
29549;BME280;16487;53.094;8.800;2022-12-07T01:09:48;102009.78;;;3.86;100.00
29549;BME280;16487;53.094;8.800;2022-12-07T01:12:15;102009.44;;;3.88;100.00
29549;BME280;16487;53.094;8.800;2022-12-07T01:14:43;102001.50;;;3.86;100.00
29549;BME280;16487;53.094;8.800;2022-12-07T01:17:11;102000.72;;;3.86;100.00
29549;BME280;16487;53.094;8.800;2022-12-07T01:19:39;101996.44;;;3.88;100.00
29549;BME280;16487;53.094;8.800;2022-12-07T01:22:06;102005.63;;;3.96;100.00
29549;BME280;16487;53.094;8.800;2022-12-07T01:24:34;101991.91;;;3.99;100.00
29549;BME280;16487;53.094;8.800;2022-12-07T01:27:01;101979.69;;;4.00;100.00
29549;BME280;16487;53.094;8.800;2022-12-07T01:29:28;101976.09;;;3.96;100.00
29549;BME280;16487;53.094;8.800;2022-12-07T01:31:55;101948.91;;;3.98;100.00
29549;BME280;16487;53.094;8.800;2022-12-07T01:34:24;101935.09;;;3.95;100.00
29549;BME280;16487;53.094;8.800;2022-12-07T01:36:51;101931.06;;;3.89;100.00
29549;BME280;16487;53.094;8.800;2022-12-07T01:39:19;101917.63;;;3.87;100.00
29549;BME280;16487;53.094;8.800;2022-12-07T01:41:46;101906.28;;;3.92;100.00
29549;BME280;16487;53.094;8.800;2022-12-07T01:44:17;101875.09;;;3.88;100.00
29549;BME280;16487;53.094;8.800;2022-12-07T01:46:45;101859.66;;;3.84;100.00
29549;BME280;16487;53.094;8.800;2022-12-07T01:49:18;101824.19;;;3.82;100.00
29549;BME280;16487;53.094;8.800;2022-12-07T01:51:52;101819.31;;;3.72;100.00
29549;BME280;16487;53.094;8.800;2022-12-07T01:54:22;101780.72;;;3.72;100.00
29549;BME280;16487;53.094;8.800;2022-12-07T01:56:51;101765.66;;;3.66;100.00
29549;BME280;16487;53.094;8.800;2022-12-07T01:59:21;101751.84;;;3.63;100.00
29549;BME280;16487;53.094;8.800;2022-12-07T02:01:49;101729.78;;;3.63;100.00
29549;BME280;16487;53.094;8.800;2022-12-07T02:04:17;101700.16;;;3.56;100.00
29549;BME280;16487;53.094;8.800;2022-12-07T02:06:45;101687.53;;;3.55;100.00
29549;BME280;16487;53.094;8.800;2022-12-07T02:09:15;101676.97;;;3.61;100.00
29549;BME280;16487;53.094;8.800;2022-12-07T02:11:42;101662.81;;;3.62;100.00
29549;BME280;16487;53.094;8.800;2022-12-07T02:14:10;101640.78;;;3.62;100.00
29549;BME280;16487;53.094;8.800;2022-12-07T02:16:44;101627.75;;;3.59;100.00
29549;BME280;16487;53.094;8.800;2022-12-07T02:22:41;101586.31;;;3.52;100.00
29549;BME280;16487;53.094;8.800;2022-12-07T02:25:18;101591.84;;;3.52;100.00
29549;BME280;16487;53.094;8.800;2022-12-07T02:27:54;101572.53;;;3.52;100.00
29549;BME280;16487;53.094;8.800;2022-12-07T02:30:31;101563.41;;;3.44;100.00
29549;BME280;16487;53.094;8.800;2022-12-07T02:33:03;101557.16;;;3.47;100.00
29549;BME280;16487;53.094;8.800;2022-12-07T02:35:36;101541.00;;;3.46;100.00
29549;BME280;16487;53.094;8.800;2022-12-07T02:38:13;101527.22;;;3.46;100.00
29549;BME280;16487;53.094;8.800;2022-12-07T02:40:44;101528.00;;;3.46;100.00
29549;BME280;16487;53.094;8.800;2022-12-07T02:43:18;101528.38;;;3.45;100.00
29549;BME280;16487;53.094;8.800;2022-12-07T02:45:48;101528.38;;;3.45;100.00
29549;BME280;16487;53.094;8.800;2022-12-07T02:48:19;101518.56;;;3.47;100.00
29549;BME280;16487;53.094;8.800;2022-12-07T02:50:49;101516.28;;;3.53;100.00
29549;BME280;16487;53.094;8.800;2022-12-07T02:53:31;101511.50;;;3.50;100.00
29549;BME280;16487;53.094;8.800;2022-12-07T02:56:00;101517.09;;;3.57;100.00
29549;BME280;16487;53.094;8.800;2022-12-07T02:58:37;101504.50;;;3.56;100.00
29549;BME280;16487;53.094;8.800;2022-12-07T03:01:15;101502.25;;;3.65;100.00
29549;BME280;16487;53.094;8.800;2022-12-07T03:03:58;101516.03;;;3.65;100.00
29549;BME280;16487;53.094;8.800;2022-12-07T03:06:31;101499.16;;;3.70;100.00
29549;BME280;16487;53.094;8.800;2022-12-07T03:09:10;101486.50;;;3.69;100.00
29549;BME280;16487;53.094;8.800;2022-12-07T03:11:44;101469.91;;;3.62;100.00
29549;BME280;16487;53.094;8.800;2022-12-07T03:14:17;101439.22;;;3.64;100.00
29549;BME280;16487;53.094;8.800;2022-12-07T03:16:50;101420.28;;;3.62;100.00
29549;BME280;16487;53.094;8.800;2022-12-07T03:19:21;101412.03;;;3.62;100.00
29549;BME280;16487;53.094;8.800;2022-12-07T03:21:54;101394.75;;;3.65;100.00
29549;BME280;16487;53.094;8.800;2022-12-07T03:24:27;101390.81;;;3.66;100.00
29549;BME280;16487;53.094;8.800;2022-12-07T03:26:59;101366.06;;;3.73;100.00
29549;BME280;16487;53.094;8.800;2022-12-07T03:29:32;101349.53;;;3.73;100.00
29549;BME280;16487;53.094;8.800;2022-12-07T03:32:05;101347.19;;;3.75;100.00
29549;BME280;16487;53.094;8.800;2022-12-07T03:34:38;101355.47;;;3.75;100.00
29549;BME280;16487;53.094;8.800;2022-12-07T03:37:14;101340.06;;;3.74;100.00
29549;BME280;16487;53.094;8.800;2022-12-07T03:39:50;101310.59;;;3.82;100.00
29549;BME280;16487;53.094;8.800;2022-12-07T03:42:19;101303.94;;;3.90;100.00
29549;BME280;16487;53.094;8.800;2022-12-07T03:44:47;101298.84;;;3.92;100.00
29549;BME280;16487;53.094;8.800;2022-12-07T03:47:22;101292.16;;;3.89;100.00
29549;BME280;16487;53.094;8.800;2022-12-07T03:49:56;101318.16;;;3.92;100.00
29549;BME280;16487;53.094;8.800;2022-12-07T03:52:31;101311.09;;;3.94;100.00
29549;BME280;16487;53.094;8.800;2022-12-07T03:55:05;101303.16;;;3.86;100.00
29549;BME280;16487;53.094;8.800;2022-12-07T03:57:36;101314.56;;;3.84;100.00
29549;BME280;16487;53.094;8.800;2022-12-07T04:00:07;101307.03;;;3.81;100.00
29549;BME280;16487;53.094;8.800;2022-12-07T04:02:42;101320.41;;;3.76;100.00
29549;BME280;16487;53.094;8.800;2022-12-07T04:05:10;101327.06;;;3.71;100.00
29549;BME280;16487;53.094;8.800;2022-12-07T04:07:38;101349.47;;;3.66;100.00
29549;BME280;16487;53.094;8.800;2022-12-07T04:10:06;101375.44;;;3.62;100.00
29549;BME280;16487;53.094;8.800;2022-12-07T04:12:34;101396.25;;;3.59;100.00
29549;BME280;16487;53.094;8.800;2022-12-07T04:15:02;101408.84;;;3.57;100.00
29549;BME280;16487;53.094;8.800;2022-12-07T04:17:29;101413.06;;;3.47;100.00
29549;BME280;16487;53.094;8.800;2022-12-07T04:19:58;101442.22;;;3.48;100.00
29549;BME280;16487;53.094;8.800;2022-12-07T04:22:26;101466.59;;;3.46;100.00
29549;BME280;16487;53.094;8.800;2022-12-07T04:24:53;101478.03;;;3.48;100.00
29549;BME280;16487;53.094;8.800;2022-12-07T04:27:20;101500.47;;;3.50;100.00
29549;BME280;16487;53.094;8.800;2022-12-07T04:29:48;101528.03;;;3.50;100.00
29549;BME280;16487;53.094;8.800;2022-12-07T04:32:15;101536.69;;;3.48;100.00
29549;BME280;16487;53.094;8.800;2022-12-07T04:34:42;101559.94;;;3.51;100.00
29549;BME280;16487;53.094;8.800;2022-12-07T04:37:11;101569.31;;;3.46;100.00
29549;BME280;16487;53.094;8.800;2022-12-07T04:39:38;101575.25;;;3.48;100.00
29549;BME280;16487;53.094;8.800;2022-12-07T04:42:06;101582.31;;;3.46;100.00
29549;BME280;16487;53.094;8.800;2022-12-07T04:44:33;101591.31;;;3.43;100.00
29549;BME280;16487;53.094;8.800;2022-12-07T04:47:00;101598.44;;;3.44;100.00
29549;BME280;16487;53.094;8.800;2022-12-07T04:49:28;101610.66;;;3.46;100.00
29549;BME280;16487;53.094;8.800;2022-12-07T04:51:55;101616.22;;;3.50;100.00
29549;BME280;16487;53.094;8.800;2022-12-07T04:54:24;101626.41;;;3.46;100.00
29549;BME280;16487;53.094;8.800;2022-12-07T04:56:51;101624.09;;;3.48;100.00
29549;BME280;16487;53.094;8.800;2022-12-07T04:59:18;101626.84;;;3.48;100.00
29549;BME280;16487;53.094;8.800;2022-12-07T05:01:46;101631.94;;;3.46;100.00
29549;BME280;16487;53.094;8.800;2022-12-07T05:04:13;101634.63;;;3.42;100.00
29549;BME280;16487;53.094;8.800;2022-12-07T05:06:40;101631.94;;;3.46;100.00
29549;BME280;16487;53.094;8.800;2022-12-07T05:09:08;101635.06;;;3.44;100.00
29549;BME280;16487;53.094;8.800;2022-12-07T05:11:36;101621.63;;;3.43;100.00
29549;BME280;16487;53.094;8.800;2022-12-07T05:14:06;101624.00;;;3.41;100.00
29549;BME280;16487;53.094;8.800;2022-12-07T05:16:33;101634.91;;;3.34;100.00
29549;BME280;16487;53.094;8.800;2022-12-07T05:19:01;101629.28;;;3.27;100.00
29549;BME280;16487;53.094;8.800;2022-12-07T05:21:28;101624.84;;;3.19;100.00
29549;BME280;16487;53.094;8.800;2022-12-07T05:23:56;101629.09;;;3.13;100.00
29549;BME280;16487;53.094;8.800;2022-12-07T05:26:23;101630.66;;;3.14;100.00
29549;BME280;16487;53.094;8.800;2022-12-07T05:28:53;101632.16;;;3.08;100.00
29549;BME280;16487;53.094;8.800;2022-12-07T05:31:21;101633.38;;;3.10;100.00
29549;BME280;16487;53.094;8.800;2022-12-07T05:33:49;101642.06;;;3.12;100.00
29549;BME280;16487;53.094;8.800;2022-12-07T05:36:16;101649.56;;;3.15;100.00
29549;BME280;16487;53.094;8.800;2022-12-07T05:38:44;101642.44;;;3.11;100.00
29549;BME280;16487;53.094;8.800;2022-12-07T05:41:14;101638.09;;;3.10;100.00
29549;BME280;16487;53.094;8.800;2022-12-07T05:43:41;101627.44;;;3.08;100.00
29549;BME280;16487;53.094;8.800;2022-12-07T05:46:10;101637.66;;;3.08;100.00
29549;BME280;16487;53.094;8.800;2022-12-07T05:48:37;101632.53;;;3.06;100.00
29549;BME280;16487;53.094;8.800;2022-12-07T05:51:04;101644.75;;;3.09;100.00
29549;BME280;16487;53.094;8.800;2022-12-07T05:53:32;101624.63;;;3.05;100.00
29549;BME280;16487;53.094;8.800;2022-12-07T05:55:59;101634.06;;;3.04;100.00
29549;BME280;16487;53.094;8.800;2022-12-07T05:58:26;101632.88;;;3.05;100.00
29549;BME280;16487;53.094;8.800;2022-12-07T06:00:54;101625.38;;;3.02;100.00
29549;BME280;16487;53.094;8.800;2022-12-07T06:03:22;101638.00;;;3.03;100.00
29549;BME280;16487;53.094;8.800;2022-12-07T06:05:52;101640.78;;;3.06;100.00
29549;BME280;16487;53.094;8.800;2022-12-07T06:08:19;101640.16;;;3.16;100.00
29549;BME280;16487;53.094;8.800;2022-12-07T06:10:47;101660.22;;;3.17;100.00
29549;BME280;16487;53.094;8.800;2022-12-07T06:13:15;101649.63;;;3.19;100.00
29549;BME280;16487;53.094;8.800;2022-12-07T06:15:42;101665.81;;;3.24;100.00
29549;BME280;16487;53.094;8.800;2022-12-07T06:18:09;101667.84;;;3.27;100.00
29549;BME280;16487;53.094;8.800;2022-12-07T06:20:38;101668.69;;;3.31;100.00
29549;BME280;16487;53.094;8.800;2022-12-07T06:23:05;101655.75;;;3.35;100.00
29549;BME280;16487;53.094;8.800;2022-12-07T06:25:32;101664.78;;;3.32;100.00
29549;BME280;16487;53.094;8.800;2022-12-07T06:28:00;101651.38;;;3.30;100.00
29549;BME280;16487;53.094;8.800;2022-12-07T06:30:27;101657.72;;;3.34;100.00
29549;BME280;16487;53.094;8.800;2022-12-07T06:32:54;101651.44;;;3.34;100.00
29549;BME280;16487;53.094;8.800;2022-12-07T06:35:22;101627.41;;;3.34;100.00
29549;BME280;16487;53.094;8.800;2022-12-07T06:37:50;101634.16;;;3.37;100.00
29549;BME280;16487;53.094;8.800;2022-12-07T06:40:18;101627.03;;;3.36;100.00
29549;BME280;16487;53.094;8.800;2022-12-07T06:42:45;101611.34;;;3.40;100.00
29549;BME280;16487;53.094;8.800;2022-12-07T06:45:12;101609.69;;;3.32;100.00
29549;BME280;16487;53.094;8.800;2022-12-07T06:47:40;101601.38;;;3.28;100.00
29549;BME280;16487;53.094;8.800;2022-12-07T06:50:10;101601.75;;;3.27;100.00
29549;BME280;16487;53.094;8.800;2022-12-07T06:52:37;101590.69;;;3.23;100.00
29549;BME280;16487;53.094;8.800;2022-12-07T06:55:07;101585.13;;;3.20;100.00
29549;BME280;16487;53.094;8.800;2022-12-07T06:57:34;101584.38;;;3.23;100.00
29549;BME280;16487;53.094;8.800;2022-12-07T07:00:03;101577.19;;;3.15;100.00
29549;BME280;16487;53.094;8.800;2022-12-07T07:02:31;101574.84;;;3.17;100.00
29549;BME280;16487;53.094;8.800;2022-12-07T07:04:58;101585.94;;;3.24;100.00
29549;BME280;16487;53.094;8.800;2022-12-07T07:07:26;101577.78;;;3.31;100.00
29549;BME280;16487;53.094;8.800;2022-12-07T07:09:53;101585.91;;;3.20;100.00
29549;BME280;16487;53.094;8.800;2022-12-07T07:12:22;101593.34;;;3.16;100.00
29549;BME280;16487;53.094;8.800;2022-12-07T07:14:49;101595.28;;;3.16;100.00
29549;BME280;16487;53.094;8.800;2022-12-07T07:17:16;101601.66;;;3.20;100.00
29549;BME280;16487;53.094;8.800;2022-12-07T07:19:43;101602.38;;;3.17;100.00
29549;BME280;16487;53.094;8.800;2022-12-07T07:22:11;101604.72;;;3.15;100.00
29549;BME280;16487;53.094;8.800;2022-12-07T07:24:38;101610.25;;;3.15;100.00
29549;BME280;16487;53.094;8.800;2022-12-07T07:27:05;101615.41;;;3.20;100.00
29549;BME280;16487;53.094;8.800;2022-12-07T07:29:34;101618.13;;;3.16;100.00
29549;BME280;16487;53.094;8.800;2022-12-07T07:32:02;101618.81;;;3.10;100.00
29549;BME280;16487;53.094;8.800;2022-12-07T07:34:33;101626.66;;;3.08;100.00
29549;BME280;16487;53.094;8.800;2022-12-07T07:37:00;101615.22;;;3.06;100.00
29549;BME280;16487;53.094;8.800;2022-12-07T07:39:28;101621.09;;;3.04;100.00
29549;BME280;16487;53.094;8.800;2022-12-07T07:41:55;101629.34;;;3.04;100.00
29549;BME280;16487;53.094;8.800;2022-12-07T07:44:26;101620.28;;;3.04;100.00
29549;BME280;16487;53.094;8.800;2022-12-07T07:47:02;101626.97;;;3.03;100.00
29549;BME280;16487;53.094;8.800;2022-12-07T07:49:30;101625.03;;;3.07;100.00
29549;BME280;16487;53.094;8.800;2022-12-07T07:51:57;101622.72;;;3.09;100.00
29549;BME280;16487;53.094;8.800;2022-12-07T07:54:25;101632.59;;;3.10;100.00
29549;BME280;16487;53.094;8.800;2022-12-07T07:56:53;101632.66;;;3.17;100.00
29549;BME280;16487;53.094;8.800;2022-12-07T07:59:20;101633.53;;;3.21;100.00
29549;BME280;16487;53.094;8.800;2022-12-07T08:01:47;101638.59;;;3.19;100.00
29549;BME280;16487;53.094;8.800;2022-12-07T08:04:16;101643.78;;;3.24;100.00
29549;BME280;16487;53.094;8.800;2022-12-07T08:06:44;101639.47;;;3.23;100.00
29549;BME280;16487;53.094;8.800;2022-12-07T08:09:12;101624.06;;;3.18;100.00
29549;BME280;16487;53.094;8.800;2022-12-07T08:11:39;101620.44;;;3.14;100.00
29549;BME280;16487;53.094;8.800;2022-12-07T08:14:06;101618.91;;;3.17;100.00
29549;BME280;16487;53.094;8.800;2022-12-07T08:16:34;101620.50;;;3.18;100.00
29549;BME280;16487;53.094;8.800;2022-12-07T08:19:01;101604.03;;;3.21;100.00
29549;BME280;16487;53.094;8.800;2022-12-07T08:21:30;101592.22;;;3.21;100.00
29549;BME280;16487;53.094;8.800;2022-12-07T08:23:57;101604.84;;;3.22;100.00
29549;BME280;16487;53.094;8.800;2022-12-07T08:26:24;101591.44;;;3.24;100.00
29549;BME280;16487;53.094;8.800;2022-12-07T08:28:52;101585.16;;;3.23;100.00
29549;BME280;16487;53.094;8.800;2022-12-07T08:31:20;101569.50;;;3.31;100.00
29549;BME280;16487;53.094;8.800;2022-12-07T08:33:47;101568.66;;;3.23;100.00
29549;BME280;16487;53.094;8.800;2022-12-07T08:36:16;101556.50;;;3.28;100.00
29549;BME280;16487;53.094;8.800;2022-12-07T08:38:45;101555.41;;;3.36;100.00
29549;BME280;16487;53.094;8.800;2022-12-07T08:41:32;101538.16;;;3.39;100.00
29549;BME280;16487;53.094;8.800;2022-12-07T08:44:00;101524.81;;;3.41;100.00
29549;BME280;16487;53.094;8.800;2022-12-07T08:46:31;101512.19;;;3.40;100.00
29549;BME280;16487;53.094;8.800;2022-12-07T08:49:03;101509.84;;;3.42;100.00
29549;BME280;16487;53.094;8.800;2022-12-07T08:51:31;101513.03;;;3.44;100.00
29549;BME280;16487;53.094;8.800;2022-12-07T08:54:02;101513.53;;;3.53;100.00
29549;BME280;16487;53.094;8.800;2022-12-07T08:56:31;101508.38;;;3.51;100.00
29549;BME280;16487;53.094;8.800;2022-12-07T08:58:58;101503.78;;;3.63;100.00
29549;BME280;16487;53.094;8.800;2022-12-07T09:01:25;101495.13;;;3.64;100.00
29549;BME280;16487;53.094;8.800;2022-12-07T09:03:53;101480.97;;;3.66;100.00
29549;BME280;16487;53.094;8.800;2022-12-07T09:06:20;101473.06;;;3.64;100.00
29549;BME280;16487;53.094;8.800;2022-12-07T09:08:51;101432.19;;;3.70;100.00
29549;BME280;16487;53.094;8.800;2022-12-07T09:11:23;101412.44;;;3.64;100.00
29549;BME280;16487;53.094;8.800;2022-12-07T09:13:55;101394.38;;;3.67;100.00
29549;BME280;16487;53.094;8.800;2022-12-07T09:16:22;101380.63;;;3.70;100.00
29549;BME280;16487;53.094;8.800;2022-12-07T09:18:50;101359.69;;;3.66;100.00
29549;BME280;16487;53.094;8.800;2022-12-07T09:21:17;101330.19;;;3.66;100.00
29549;BME280;16487;53.094;8.800;2022-12-07T09:23:45;101315.97;;;3.64;100.00
29549;BME280;16487;53.094;8.800;2022-12-07T09:26:12;101297.53;;;3.68;100.00
29549;BME280;16487;53.094;8.800;2022-12-07T09:28:41;101284.16;;;3.70;100.00
29549;BME280;16487;53.094;8.800;2022-12-07T09:31:08;101263.66;;;3.68;100.00
29549;BME280;16487;53.094;8.800;2022-12-07T09:33:55;101241.63;;;3.71;100.00
29549;BME280;16487;53.094;8.800;2022-12-07T09:36:23;101231.41;;;3.72;100.00
29549;BME280;16487;53.094;8.800;2022-12-07T09:38:51;101214.47;;;3.73;100.00
29549;BME280;16487;53.094;8.800;2022-12-07T09:41:19;101207.06;;;3.88;100.00
29549;BME280;16487;53.094;8.800;2022-12-07T09:43:48;101193.66;;;3.86;100.00
29549;BME280;16487;53.094;8.800;2022-12-07T09:46:17;101183.09;;;3.99;100.00
29549;BME280;16487;53.094;8.800;2022-12-07T09:48:47;101168.50;;;3.98;100.00
29549;BME280;16487;53.094;8.800;2022-12-07T09:51:16;101142.91;;;3.94;100.00
29549;BME280;16487;53.094;8.800;2022-12-07T09:53:51;101140.94;;;3.91;100.00
29549;BME280;16487;53.094;8.800;2022-12-07T09:56:19;101113.34;;;3.91;100.00
29549;BME280;16487;53.094;8.800;2022-12-07T09:58:49;101118.06;;;3.87;100.00
29549;BME280;16487;53.094;8.800;2022-12-07T10:01:20;101093.63;;;3.86;100.00
29549;BME280;16487;53.094;8.800;2022-12-07T10:03:50;101072.00;;;3.98;100.00
29549;BME280;16487;53.094;8.800;2022-12-07T10:06:18;101067.69;;;4.08;100.00
29549;BME280;16487;53.094;8.800;2022-12-07T10:08:46;101060.22;;;4.15;100.00
29549;BME280;16487;53.094;8.800;2022-12-07T10:11:13;101046.03;;;4.20;100.00
29549;BME280;16487;53.094;8.800;2022-12-07T10:13:42;101039.34;;;4.39;100.00
29549;BME280;16487;53.094;8.800;2022-12-07T10:16:35;101041.72;;;4.51;100.00
29549;BME280;16487;53.094;8.800;2022-12-07T10:19:19;101035.41;;;4.36;100.00
29549;BME280;16487;53.094;8.800;2022-12-07T10:22:00;101033.81;;;4.28;100.00
29549;BME280;16487;53.094;8.800;2022-12-07T10:24:28;101036.56;;;4.21;100.00
29549;BME280;16487;53.094;8.800;2022-12-07T10:26:55;101031.47;;;4.16;100.00
29549;BME280;16487;53.094;8.800;2022-12-07T10:29:24;101034.63;;;4.18;100.00
29549;BME280;16487;53.094;8.800;2022-12-07T10:31:59;101024.75;;;4.38;100.00
29549;BME280;16487;53.094;8.800;2022-12-07T10:34:28;101036.19;;;4.33;100.00
29549;BME280;16487;53.094;8.800;2022-12-07T10:37:14;101033.44;;;4.33;100.00
29549;BME280;16487;53.094;8.800;2022-12-07T10:39:43;101031.47;;;4.37;100.00
29549;BME280;16487;53.094;8.800;2022-12-07T10:42:19;101034.22;;;4.37;100.00
29549;BME280;16487;53.094;8.800;2022-12-07T10:44:47;101029.47;;;4.48;100.00
29549;BME280;16487;53.094;8.800;2022-12-07T10:47:25;101025.13;;;4.86;100.00
29549;BME280;16487;53.094;8.800;2022-12-07T10:50:32;101025.94;;;4.58;100.00
29549;BME280;16487;53.094;8.800;2022-12-07T10:53:15;101019.63;;;4.61;100.00
29549;BME280;16487;53.094;8.800;2022-12-07T10:56:04;100994.41;;;4.52;100.00
29549;BME280;16487;53.094;8.800;2022-12-07T10:58:47;101008.19;;;4.59;100.00
29549;BME280;16487;53.094;8.800;2022-12-07T11:01:24;101012.41;;;5.20;100.00
29549;BME280;16487;53.094;8.800;2022-12-07T11:04:12;101008.84;;;5.13;100.00
29549;BME280;16487;53.094;8.800;2022-12-07T11:06:48;101006.13;;;5.06;100.00
29549;BME280;16487;53.094;8.800;2022-12-07T11:09:38;101010.50;;;4.96;100.00
29549;BME280;16487;53.094;8.800;2022-12-07T11:12:42;101011.72;;;4.85;100.00
29549;BME280;16487;53.094;8.800;2022-12-07T11:15:17;101099.28;;;4.81;100.00
29549;BME280;16487;53.094;8.800;2022-12-07T11:17:55;101081.91;;;4.55;100.00
29549;BME280;16487;53.094;8.800;2022-12-07T11:20:39;101089.81;;;4.50;100.00
29549;BME280;16487;53.094;8.800;2022-12-07T11:23:16;101068.50;;;4.33;100.00
29549;BME280;16487;53.094;8.800;2022-12-07T11:25:53;101048.03;;;4.34;100.00
29549;BME280;16487;53.094;8.800;2022-12-07T11:28:41;101043.66;;;4.36;100.00
29549;BME280;16487;53.094;8.800;2022-12-07T11:31:20;101034.22;;;4.62;100.00
29549;BME280;16487;53.094;8.800;2022-12-07T11:33:59;101034.59;;;4.75;100.00
29549;BME280;16487;53.094;8.800;2022-12-07T11:36:37;101034.56;;;4.85;100.00
29549;BME280;16487;53.094;8.800;2022-12-07T11:39:12;101028.19;;;5.13;100.00
29549;BME280;16487;53.094;8.800;2022-12-07T11:41:43;101025.06;;;5.11;100.00
29549;BME280;16487;53.094;8.800;2022-12-07T11:44:24;101024.28;;;5.03;100.00
29549;BME280;16487;53.094;8.800;2022-12-07T11:46:58;101035.34;;;4.93;100.00
29549;BME280;16487;53.094;8.800;2022-12-07T11:49:37;101036.13;;;5.04;100.00
29549;BME280;16487;53.094;8.800;2022-12-07T11:52:16;101026.25;;;5.06;100.00
29549;BME280;16487;53.094;8.800;2022-12-07T11:54:45;101023.47;;;5.06;100.00
29549;BME280;16487;53.094;8.800;2022-12-07T11:57:19;101021.50;;;5.14;100.00
29549;BME280;16487;53.094;8.800;2022-12-07T11:59:51;101008.34;;;5.46;100.00
29549;BME280;16487;53.094;8.800;2022-12-07T12:02:23;101043.47;;;5.49;100.00
29549;BME280;16487;53.094;8.800;2022-12-07T12:04:56;101181.59;;;5.73;100.00
29549;BME280;16487;53.094;8.800;2022-12-07T12:07:28;101163.03;;;5.92;100.00
29549;BME280;16487;53.094;8.800;2022-12-07T12:10:19;101156.28;;;5.93;100.00
29549;BME280;16487;53.094;8.800;2022-12-07T12:13:12;101156.72;;;5.77;100.00
29549;BME280;16487;53.094;8.800;2022-12-07T12:16:17;101148.00;;;5.93;100.00
29549;BME280;16487;53.094;8.800;2022-12-07T12:18:58;101067.25;;;6.15;100.00
29549;BME280;16487;53.094;8.800;2022-12-07T12:21:31;101078.38;;;6.05;100.00
29549;BME280;16487;53.094;8.800;2022-12-07T12:24:02;101068.97;;;5.95;100.00
29549;BME280;16487;53.094;8.800;2022-12-07T12:26:32;101068.84;;;6.13;100.00
29549;BME280;16487;53.094;8.800;2022-12-07T12:29:04;101100.53;;;6.01;100.00
29549;BME280;16487;53.094;8.800;2022-12-07T12:31:36;101098.88;;;6.14;100.00
29549;BME280;16487;53.094;8.800;2022-12-07T12:36:47;101102.28;;;5.53;100.00
29549;BME280;16487;53.094;8.800;2022-12-07T12:39:18;101095.94;;;5.56;100.00
29549;BME280;16487;53.094;8.800;2022-12-07T12:41:56;101096.81;;;5.35;100.00
29549;BME280;16487;53.094;8.800;2022-12-07T12:44:40;101094.47;;;5.27;100.00
29549;BME280;16487;53.094;8.800;2022-12-07T12:50:16;101113.81;;;4.28;100.00
29549;BME280;16487;53.094;8.800;2022-12-07T12:53:00;101113.28;;;3.70;100.00
29549;BME280;16487;53.094;8.800;2022-12-07T12:56:02;101088.81;;;3.58;100.00
29549;BME280;16487;53.094;8.800;2022-12-07T12:58:38;101089.25;;;3.78;100.00
29549;BME280;16487;53.094;8.800;2022-12-07T13:01:38;101089.72;;;4.01;100.00
29549;BME280;16487;53.094;8.800;2022-12-07T13:07:13;101089.75;;;4.08;100.00
29549;BME280;16487;53.094;8.800;2022-12-07T13:10:02;101086.22;;;4.21;100.00
29549;BME280;16487;53.094;8.800;2022-12-07T13:12:31;101085.84;;;4.26;100.00
29549;BME280;16487;53.094;8.800;2022-12-07T13:14:59;101094.91;;;4.23;100.00
29549;BME280;16487;53.094;8.800;2022-12-07T13:17:56;101092.94;;;4.20;100.00
29549;BME280;16487;53.094;8.800;2022-12-07T13:20:52;101103.19;;;4.23;100.00
29549;BME280;16487;53.094;8.800;2022-12-07T13:23:23;101093.34;;;4.33;100.00